Time;durP1;ratioP1;P1;durP2;ratioP2;P2;SDS_P1;SDS_P2;PMS_P1;PMS_P2;Temp;Humidity;BMP_temperature;BMP_pressure;BME280_temperature;BME280_humidity;BME280_pressure;Samples;Min_cycle;Max_cycle;Signal;HPM_P1;HPM_P2
2023/05/29 17:15:45;;;;;;;3.15;1.33;;;;;;;21.38;56.76;98745.44;15279818;19;20086;-82
2023/05/29 17:21:12;;;;;;;2.00;1.10;;;;;;;21.24;57.18;98747.44;15293210;19;20361;-81
2023/05/29 17:26:36;;;;;;;2.38;1.17;;;;;;;21.11;57.55;98748.38;15262265;19;20023;-82
2023/05/29 17:32:03;;;;;;;2.95;1.27;;;;;;;20.77;59.50;98750.50;15294603;19;20017;-82
2023/05/29 17:37:28;;;;;;;3.25;1.25;;;;;;;20.84;60.52;98748.56;15289944;19;20039;-82
2023/05/29 17:42:53;;;;;;;1.98;1.20;;;;;;;20.63;62.89;98753.31;15292848;19;20025;-86
2023/05/29 17:48:20;;;;;;;3.13;1.50;;;;;;;20.44;66.53;98760.56;15296723;19;20018;-86
2023/05/29 17:53:46;;;;;;;3.17;1.42;;;;;;;20.16;71.33;98767.16;15298583;19;20022;-84
2023/05/29 17:59:10;;;;;;;2.17;1.40;;;;;;;19.94;74.18;98772.06;15293649;19;20078;-84
2023/05/29 18:04:37;;;;;;;2.65;1.30;;;;;;;19.66;77.25;98769.56;15281923;19;20015;-84
2023/05/29 18:10:02;;;;;;;1.80;1.27;;;;;;;19.42;77.16;98780.06;15283225;19;20026;-85
2023/05/29 18:15:28;;;;;;;2.92;1.38;;;;;;;19.20;82.18;98783.00;15285410;19;20020;-82
2023/05/29 18:20:55;;;;;;;2.00;1.35;;;;;;;19.00;83.81;98788.44;15286679;19;20045;-84
2023/05/29 18:26:21;;;;;;;3.17;1.20;;;;;;;18.75;87.97;98779.97;15285524;19;20018;-83
2023/05/29 18:31:46;;;;;;;5.32;1.50;;;;;;;18.50;89.80;98771.50;15285191;19;20006;-83
2023/05/29 18:37:15;;;;;;;4.13;1.40;;;;;;;18.20;95.94;98769.91;15295216;19;20089;-83
2023/05/29 18:42:40;;;;;;;2.92;1.40;;;;;;;17.87;97.11;98776.81;15281501;19;20378;-83
2023/05/29 18:48:06;;;;;;;3.08;1.40;;;;;;;17.64;97.84;98776.22;15290640;19;20018;-83
2023/05/29 18:53:35;;;;;;;2.92;1.50;;;;;;;17.33;97.86;98785.63;15355365;19;20039;-83
2023/05/29 18:59:13;;;;;;;2.65;1.27;;;;;;;17.09;99.70;98787.72;15362106;19;20058;-84
2023/05/29 19:04:40;;;;;;;3.15;1.40;;;;;;;16.89;98.78;98788.31;15361637;19;20017;-83
2023/05/29 19:10:09;;;;;;;2.53;1.20;;;;;;;16.73;100.00;98796.72;15293200;19;20015;-84
2023/05/29 19:15:33;;;;;;;3.15;1.30;;;;;;;16.54;100.00;98806.34;15323503;19;20006;-82
2023/05/29 19:21:04;;;;;;;2.47;1.30;;;;;;;16.39;100.00;98803.66;15275999;19;20028;-48
2023/05/29 19:26:35;;;;;;;2.63;1.20;;;;;;;16.26;100.00;98793.44;15276373;19;20033;-47
2023/05/29 19:32:02;;;;;;;2.30;1.42;;;;;;;16.18;100.00;98810.66;15262567;19;20085;-47
2023/05/29 19:37:27;;;;;;;2.28;1.38;;;;;;;16.17;100.00;98814.41;15274097;19;20553;-49
2023/05/29 19:42:54;;;;;;;1.88;1.25;;;;;;;16.11;100.00;98823.34;15278429;19;20043;-44
2023/05/29 19:48:19;;;;;;;3.03;1.40;;;;;;;16.09;100.00;98831.69;15276425;19;20019;-45
2023/05/29 19:53:43;;;;;;;3.55;1.25;;;;;;;16.04;100.00;98841.44;15277496;19;20015;-44
2023/05/29 19:59:10;;;;;;;2.97;1.35;;;;;;;15.93;100.00;98840.00;15276221;19;20022;-45
2023/05/29 20:04:38;;;;;;;2.20;1.20;;;;;;;15.83;100.00;98838.38;15265310;19;20025;-48
2023/05/29 20:10:04;;;;;;;2.85;1.35;;;;;;;15.77;100.00;98841.81;15272650;19;20095;-47
2023/05/29 20:15:31;;;;;;;3.33;1.10;;;;;;;15.67;100.00;98839.38;15286873;19;20402;-46
2023/05/29 20:21:02;;;;;;;2.67;1.20;;;;;;;15.56;100.00;98848.81;15285870;19;20027;-46
2023/05/29 20:26:27;;;;;;;3.10;1.50;;;;;;;15.43;100.00;98851.28;15284036;19;20365;-47
2023/05/29 20:31:54;;;;;;;2.92;1.20;;;;;;;15.38;100.00;98851.84;15282656;19;20015;-47
2023/05/29 20:37:19;;;;;;;4.20;1.48;;;;;;;15.27;100.00;98849.56;15282251;19;20011;-46
2023/05/29 20:42:45;;;;;;;2.90;1.30;;;;;;;15.21;100.00;98851.13;15287098;19;20018;-45
2023/05/29 20:48:14;;;;;;;2.80;1.30;;;;;;;15.10;100.00;98860.53;15282011;19;20049;-43
2023/05/29 20:53:38;;;;;;;3.85;1.45;;;;;;;15.04;100.00;98869.38;15283746;19;20833;-45
2023/05/29 20:59:04;;;;;;;2.20;1.27;;;;;;;14.99;100.00;98870.94;15283346;19;20082;-45
2023/05/29 21:04:31;;;;;;;4.10;1.40;;;;;;;14.90;100.00;98864.72;15280240;19;20010;-46
2023/05/29 21:09:56;;;;;;;3.40;1.42;;;;;;;14.78;100.00;98867.00;15277765;19;20021;-46
2023/05/29 21:15:20;;;;;;;2.63;1.20;;;;;;;14.74;98.08;98871.94;15283211;19;20041;-47
2023/05/29 21:20:47;;;;;;;2.63;1.30;;;;;;;14.70;94.44;98859.75;15281821;19;20809;-47
2023/05/29 21:26:12;;;;;;;2.85;1.23;;;;;;;14.67;92.59;98870.06;15273766;19;20625;-46
2023/05/29 21:31:40;;;;;;;3.00;1.33;;;;;;;14.61;89.75;98863.50;15279923;19;20010;-46
2023/05/29 21:37:10;;;;;;;3.05;1.20;;;;;;;14.54;85.87;98870.63;15281696;19;20093;-46
2023/05/29 21:42:35;;;;;;;4.07;1.48;;;;;;;14.51;86.04;98873.69;15271516;19;20466;-49
2023/05/29 21:48:00;;;;;;;3.50;1.25;;;;;;;14.43;86.78;98880.81;15280162;19;20026;-47
2023/05/29 21:53:28;;;;;;;3.28;1.17;;;;;;;14.40;83.95;98885.75;15281269;19;20021;-46
2023/05/29 21:58:52;;;;;;;2.90;1.20;;;;;;;14.35;85.59;98880.88;15277444;19;20012;-47
2023/05/29 22:04:17;;;;;;;3.08;1.30;;;;;;;14.28;85.72;98890.72;15278569;19;20017;-46
2023/05/29 22:09:44;;;;;;;3.85;1.40;;;;;;;14.18;86.41;98894.44;15277912;19;20014;-46
2023/05/29 22:15:09;;;;;;;3.90;1.13;;;;;;;14.07;84.30;98908.34;15274414;19;20355;-45
2023/05/29 22:20:41;;;;;;;2.17;1.10;;;;;;;14.03;82.60;98901.63;15275735;19;20629;-47
2023/05/29 22:26:09;;;;;;;3.67;1.40;;;;;;;13.94;80.56;98908.91;15277489;19;20085;-45
2023/05/29 22:31:33;;;;;;;2.65;1.33;;;;;;;13.90;80.56;98907.53;15273994;19;20298;-48
2023/05/29 22:36:59;;;;;;;2.80;1.40;;;;;;;13.84;79.10;98914.47;15278817;19;20617;-46
2023/05/29 22:42:26;;;;;;;2.75;1.10;;;;;;;13.82;79.15;98911.09;15276766;19;20440;-45
2023/05/29 22:47:52;;;;;;;4.57;1.20;;;;;;;13.71;78.92;98908.72;15272924;19;20011;-45
2023/05/29 22:53:17;;;;;;;3.83;1.30;;;;;;;13.65;77.88;98907.56;15278224;19;20619;-45
2023/05/29 22:58:46;;;;;;;3.15;1.38;;;;;;;13.56;79.54;98906.72;15276712;19;20020;-46
2023/05/29 23:04:12;;;;;;;5.38;1.00;;;;;;;13.50;80.23;98917.38;15274921;19;20011;-46
2023/05/29 23:09:38;;;;;;;2.50;1.30;;;;;;;13.42;78.97;98899.25;15275344;19;20063;-45
2023/05/29 23:15:06;;;;;;;2.15;1.13;;;;;;;13.37;81.16;98902.44;15277325;19;20027;-46
2023/05/29 23:20:31;;;;;;;3.00;1.33;;;;;;;13.28;81.33;98908.00;15269152;19;20019;-47
2023/05/29 23:25:55;;;;;;;3.30;1.40;;;;;;;13.23;81.18;98912.03;15275079;19;20475;-45
2023/05/29 23:31:23;;;;;;;3.95;1.23;;;;;;;13.15;81.24;98916.63;15273103;19;20014;-45
2023/05/29 23:36:48;;;;;;;2.65;1.20;;;;;;;13.10;82.77;98917.94;15274768;19;20038;-46
2023/05/29 23:42:13;;;;;;;6.35;1.60;;;;;;;13.04;85.43;98917.75;15276223;19;20010;-46
2023/05/29 23:47:41;;;;;;;3.63;1.33;;;;;;;12.98;85.30;98924.69;15275564;19;20010;-47
2023/05/29 23:53:06;;;;;;;3.28;1.20;;;;;;;12.88;86.07;98923.97;15283973;19;20363;-47
2023/05/29 23:58:59;;;;;;;3.33;1.27;;;;;;;12.77;87.94;98919.69;15283656;19;20014;-79
